sensor_id;sensor_type;location;lat;lon;timestamp;temperature;humidity
7846;DHT22;3968;51.424;6.788;2023-08-30T00:02:18;18.90;99.90
7846;DHT22;3968;51.424;6.788;2023-08-30T00:04:44;18.90;99.90
7846;DHT22;3968;51.424;6.788;2023-08-30T00:07:10;18.90;99.90
7846;DHT22;3968;51.424;6.788;2023-08-30T00:09:36;18.90;99.90
7846;DHT22;3968;51.424;6.788;2023-08-30T00:12:03;18.90;99.90
7846;DHT22;3968;51.424;6.788;2023-08-30T00:14:28;18.90;99.90
7846;DHT22;3968;51.424;6.788;2023-08-30T00:16:54;19.00;99.90
7846;DHT22;3968;51.424;6.788;2023-08-30T00:19:20;19.00;99.90
7846;DHT22;3968;51.424;6.788;2023-08-30T00:21:46;19.00;99.90
7846;DHT22;3968;51.424;6.788;2023-08-30T00:24:11;19.00;99.90
7846;DHT22;3968;51.424;6.788;2023-08-30T00:26:37;19.00;99.90
7846;DHT22;3968;51.424;6.788;2023-08-30T00:29:02;18.90;99.90
7846;DHT22;3968;51.424;6.788;2023-08-30T00:31:28;18.90;99.90
7846;DHT22;3968;51.424;6.788;2023-08-30T00:33:54;18.80;99.90
7846;DHT22;3968;51.424;6.788;2023-08-30T00:36:19;18.80;99.90
7846;DHT22;3968;51.424;6.788;2023-08-30T00:38:45;18.80;99.90
7846;DHT22;3968;51.424;6.788;2023-08-30T00:41:11;18.80;99.90
7846;DHT22;3968;51.424;6.788;2023-08-30T00:43:36;18.80;99.90
7846;DHT22;3968;51.424;6.788;2023-08-30T00:46:02;18.70;99.90
7846;DHT22;3968;51.424;6.788;2023-08-30T00:48:28;18.70;99.90
7846;DHT22;3968;51.424;6.788;2023-08-30T00:50:54;18.70;99.90
7846;DHT22;3968;51.424;6.788;2023-08-30T00:53:20;18.70;99.90
7846;DHT22;3968;51.424;6.788;2023-08-30T00:55:45;18.70;99.90
7846;DHT22;3968;51.424;6.788;2023-08-30T00:58:11;18.60;99.90
7846;DHT22;3968;51.424;6.788;2023-08-30T01:00:37;18.60;99.90
7846;DHT22;3968;51.424;6.788;2023-08-30T01:03:06;18.60;99.90
7846;DHT22;3968;51.424;6.788;2023-08-30T01:05:32;18.60;99.90
7846;DHT22;3968;51.424;6.788;2023-08-30T01:07:58;18.60;99.90
7846;DHT22;3968;51.424;6.788;2023-08-30T01:13:29;18.50;99.90
7846;DHT22;3968;51.424;6.788;2023-08-30T01:15:58;18.50;99.90
7846;DHT22;3968;51.424;6.788;2023-08-30T01:18:26;18.50;99.90
7846;DHT22;3968;51.424;6.788;2023-08-30T01:20:55;18.50;99.90
7846;DHT22;3968;51.424;6.788;2023-08-30T01:23:29;18.50;99.90
7846;DHT22;3968;51.424;6.788;2023-08-30T01:26:23;18.50;99.90
7846;DHT22;3968;51.424;6.788;2023-08-30T01:28:52;18.50;99.90
7846;DHT22;3968;51.424;6.788;2023-08-30T01:31:20;18.50;99.90
7846;DHT22;3968;51.424;6.788;2023-08-30T01:33:46;18.50;99.90
7846;DHT22;3968;51.424;6.788;2023-08-30T01:36:14;18.60;99.90
7846;DHT22;3968;51.424;6.788;2023-08-30T01:38:40;18.60;99.90
7846;DHT22;3968;51.424;6.788;2023-08-30T01:41:06;18.60;99.90
7846;DHT22;3968;51.424;6.788;2023-08-30T01:43:33;18.60;99.90
7846;DHT22;3968;51.424;6.788;2023-08-30T01:45:59;18.60;99.90
7846;DHT22;3968;51.424;6.788;2023-08-30T01:48:27;18.60;99.90
7846;DHT22;3968;51.424;6.788;2023-08-30T01:50:53;18.60;99.90
7846;DHT22;3968;51.424;6.788;2023-08-30T01:53:24;18.60;99.90
7846;DHT22;3968;51.424;6.788;2023-08-30T01:55:50;18.60;99.90
7846;DHT22;3968;51.424;6.788;2023-08-30T01:58:16;18.60;99.90
7846;DHT22;3968;51.424;6.788;2023-08-30T02:00:41;18.60;99.90
7846;DHT22;3968;51.424;6.788;2023-08-30T02:03:11;18.60;99.90
7846;DHT22;3968;51.424;6.788;2023-08-30T02:08:17;18.50;99.90
7846;DHT22;3968;51.424;6.788;2023-08-30T02:10:52;18.50;99.90
7846;DHT22;3968;51.424;6.788;2023-08-30T02:13:25;18.50;99.90
7846;DHT22;3968;51.424;6.788;2023-08-30T02:15:54;18.50;99.90
7846;DHT22;3968;51.424;6.788;2023-08-30T02:18:20;18.50;99.90
7846;DHT22;3968;51.424;6.788;2023-08-30T02:20:46;18.50;99.90
7846;DHT22;3968;51.424;6.788;2023-08-30T02:23:12;18.40;99.90
7846;DHT22;3968;51.424;6.788;2023-08-30T02:25:37;18.40;99.90
7846;DHT22;3968;51.424;6.788;2023-08-30T02:28:03;18.40;99.90
7846;DHT22;3968;51.424;6.788;2023-08-30T02:30:29;18.40;99.90
7846;DHT22;3968;51.424;6.788;2023-08-30T02:32:55;18.40;99.90
7846;DHT22;3968;51.424;6.788;2023-08-30T02:35:20;18.40;99.90
7846;DHT22;3968;51.424;6.788;2023-08-30T02:37:46;18.40;99.90
7846;DHT22;3968;51.424;6.788;2023-08-30T02:40:11;18.40;99.90
7846;DHT22;3968;51.424;6.788;2023-08-30T02:42:37;18.40;99.90
7846;DHT22;3968;51.424;6.788;2023-08-30T02:45:03;18.40;99.90
7846;DHT22;3968;51.424;6.788;2023-08-30T02:47:28;18.40;99.90
7846;DHT22;3968;51.424;6.788;2023-08-30T02:49:54;18.40;99.90
7846;DHT22;3968;51.424;6.788;2023-08-30T02:52:20;18.40;99.90
7846;DHT22;3968;51.424;6.788;2023-08-30T02:54:45;18.30;99.90
7846;DHT22;3968;51.424;6.788;2023-08-30T02:57:11;18.30;99.90
7846;DHT22;3968;51.424;6.788;2023-08-30T02:59:36;18.40;99.90
7846;DHT22;3968;51.424;6.788;2023-08-30T03:02:02;18.30;99.90
7846;DHT22;3968;51.424;6.788;2023-08-30T03:04:28;18.40;99.90
7846;DHT22;3968;51.424;6.788;2023-08-30T03:06:53;18.30;99.90
7846;DHT22;3968;51.424;6.788;2023-08-30T03:09:19;18.30;99.90
7846;DHT22;3968;51.424;6.788;2023-08-30T03:11:45;18.30;99.90
7846;DHT22;3968;51.424;6.788;2023-08-30T03:14:10;18.30;99.90
7846;DHT22;3968;51.424;6.788;2023-08-30T03:16:36;18.40;99.90
7846;DHT22;3968;51.424;6.788;2023-08-30T03:19:02;18.30;99.90
7846;DHT22;3968;51.424;6.788;2023-08-30T03:21:28;18.40;99.90
7846;DHT22;3968;51.424;6.788;2023-08-30T03:23:53;18.40;99.90
7846;DHT22;3968;51.424;6.788;2023-08-30T03:26:19;18.30;99.90
7846;DHT22;3968;51.424;6.788;2023-08-30T03:28:45;18.30;99.90
7846;DHT22;3968;51.424;6.788;2023-08-30T03:31:17;18.30;99.90
7846;DHT22;3968;51.424;6.788;2023-08-30T03:33:43;18.30;99.90
7846;DHT22;3968;51.424;6.788;2023-08-30T03:36:14;18.30;99.90
7846;DHT22;3968;51.424;6.788;2023-08-30T03:38:41;18.30;99.90
7846;DHT22;3968;51.424;6.788;2023-08-30T03:41:06;18.30;99.90
7846;DHT22;3968;51.424;6.788;2023-08-30T03:43:32;18.30;99.90
7846;DHT22;3968;51.424;6.788;2023-08-30T03:45:59;18.20;99.90
7846;DHT22;3968;51.424;6.788;2023-08-30T03:48:25;18.30;99.90
7846;DHT22;3968;51.424;6.788;2023-08-30T03:50:51;18.30;99.90
7846;DHT22;3968;51.424;6.788;2023-08-30T03:53:16;18.20;99.90
7846;DHT22;3968;51.424;6.788;2023-08-30T03:55:42;18.20;99.90
7846;DHT22;3968;51.424;6.788;2023-08-30T03:58:08;18.20;99.90
7846;DHT22;3968;51.424;6.788;2023-08-30T04:00:36;18.20;99.90
7846;DHT22;3968;51.424;6.788;2023-08-30T04:03:02;18.10;99.90
7846;DHT22;3968;51.424;6.788;2023-08-30T04:05:36;18.10;99.90
7846;DHT22;3968;51.424;6.788;2023-08-30T04:08:05;18.10;99.90
7846;DHT22;3968;51.424;6.788;2023-08-30T04:10:38;18.10;99.90
7846;DHT22;3968;51.424;6.788;2023-08-30T04:13:05;18.10;99.90
7846;DHT22;3968;51.424;6.788;2023-08-30T04:15:34;18.20;99.90
7846;DHT22;3968;51.424;6.788;2023-08-30T04:18:01;18.20;99.90
7846;DHT22;3968;51.424;6.788;2023-08-30T04:20:27;18.20;99.90
7846;DHT22;3968;51.424;6.788;2023-08-30T04:22:52;18.10;99.90
7846;DHT22;3968;51.424;6.788;2023-08-30T04:25:20;18.10;99.90
7846;DHT22;3968;51.424;6.788;2023-08-30T04:27:46;18.10;99.90
7846;DHT22;3968;51.424;6.788;2023-08-30T04:30:12;18.10;99.90
7846;DHT22;3968;51.424;6.788;2023-08-30T04:32:37;18.00;99.90
7846;DHT22;3968;51.424;6.788;2023-08-30T04:35:03;18.00;99.90
7846;DHT22;3968;51.424;6.788;2023-08-30T04:37:32;18.00;99.90
7846;DHT22;3968;51.424;6.788;2023-08-30T04:39:58;18.00;99.90
7846;DHT22;3968;51.424;6.788;2023-08-30T04:42:23;18.00;99.90
7846;DHT22;3968;51.424;6.788;2023-08-30T04:44:50;18.00;99.90
7846;DHT22;3968;51.424;6.788;2023-08-30T04:47:16;18.00;99.90
7846;DHT22;3968;51.424;6.788;2023-08-30T04:49:42;18.00;99.90
7846;DHT22;3968;51.424;6.788;2023-08-30T04:52:07;18.10;99.90
7846;DHT22;3968;51.424;6.788;2023-08-30T04:54:33;18.10;99.90
7846;DHT22;3968;51.424;6.788;2023-08-30T04:56:59;18.10;99.90
7846;DHT22;3968;51.424;6.788;2023-08-30T04:59:24;18.00;99.90
7846;DHT22;3968;51.424;6.788;2023-08-30T05:01:50;18.00;99.90
7846;DHT22;3968;51.424;6.788;2023-08-30T05:04:17;18.10;99.90
7846;DHT22;3968;51.424;6.788;2023-08-30T05:06:43;18.10;99.90
7846;DHT22;3968;51.424;6.788;2023-08-30T05:09:08;18.10;99.90
7846;DHT22;3968;51.424;6.788;2023-08-30T05:11:34;18.10;99.90
7846;DHT22;3968;51.424;6.788;2023-08-30T05:14:00;18.20;99.90
7846;DHT22;3968;51.424;6.788;2023-08-30T05:16:25;18.20;99.90
7846;DHT22;3968;51.424;6.788;2023-08-30T05:18:51;18.20;99.90
7846;DHT22;3968;51.424;6.788;2023-08-30T05:21:17;18.20;99.90
7846;DHT22;3968;51.424;6.788;2023-08-30T05:23:43;18.20;99.90
7846;DHT22;3968;51.424;6.788;2023-08-30T05:26:10;18.20;99.90
7846;DHT22;3968;51.424;6.788;2023-08-30T05:28:39;18.20;99.90
7846;DHT22;3968;51.424;6.788;2023-08-30T05:31:04;18.20;99.90
7846;DHT22;3968;51.424;6.788;2023-08-30T05:33:30;18.20;99.90
7846;DHT22;3968;51.424;6.788;2023-08-30T05:35:56;18.20;99.90
7846;DHT22;3968;51.424;6.788;2023-08-30T05:38:22;18.30;99.90
7846;DHT22;3968;51.424;6.788;2023-08-30T05:40:47;18.30;99.90
7846;DHT22;3968;51.424;6.788;2023-08-30T05:43:13;18.30;99.90
7846;DHT22;3968;51.424;6.788;2023-08-30T05:45:39;18.30;99.90
7846;DHT22;3968;51.424;6.788;2023-08-30T05:48:05;18.30;99.90
7846;DHT22;3968;51.424;6.788;2023-08-30T05:50:31;18.30;99.90
7846;DHT22;3968;51.424;6.788;2023-08-30T05:52:56;18.30;99.90
7846;DHT22;3968;51.424;6.788;2023-08-30T05:55:22;18.30;99.90
7846;DHT22;3968;51.424;6.788;2023-08-30T05:57:48;18.40;99.90
7846;DHT22;3968;51.424;6.788;2023-08-30T06:00:13;18.30;99.90
7846;DHT22;3968;51.424;6.788;2023-08-30T06:02:40;18.30;99.90
7846;DHT22;3968;51.424;6.788;2023-08-30T06:05:06;18.30;99.90
7846;DHT22;3968;51.424;6.788;2023-08-30T06:07:32;18.30;99.90
7846;DHT22;3968;51.424;6.788;2023-08-30T06:09:57;18.30;99.90
7846;DHT22;3968;51.424;6.788;2023-08-30T06:12:23;18.40;99.90
7846;DHT22;3968;51.424;6.788;2023-08-30T06:14:51;18.40;99.90
7846;DHT22;3968;51.424;6.788;2023-08-30T06:17:18;18.40;99.90
7846;DHT22;3968;51.424;6.788;2023-08-30T06:19:45;18.50;99.90
7846;DHT22;3968;51.424;6.788;2023-08-30T06:22:11;18.50;99.90
7846;DHT22;3968;51.424;6.788;2023-08-30T06:24:37;18.50;99.90
7846;DHT22;3968;51.424;6.788;2023-08-30T06:27:02;18.50;99.90
7846;DHT22;3968;51.424;6.788;2023-08-30T06:29:28;18.40;99.90
7846;DHT22;3968;51.424;6.788;2023-08-30T06:31:54;18.40;99.90
7846;DHT22;3968;51.424;6.788;2023-08-30T06:34:19;18.50;99.90
7846;DHT22;3968;51.424;6.788;2023-08-30T06:36:45;18.50;99.90
7846;DHT22;3968;51.424;6.788;2023-08-30T06:39:11;18.50;99.90
7846;DHT22;3968;51.424;6.788;2023-08-30T06:41:36;18.50;99.90
7846;DHT22;3968;51.424;6.788;2023-08-30T06:44:02;18.50;99.90
7846;DHT22;3968;51.424;6.788;2023-08-30T06:46:28;18.60;99.90
7846;DHT22;3968;51.424;6.788;2023-08-30T06:48:54;18.60;99.90
7846;DHT22;3968;51.424;6.788;2023-08-30T06:51:20;18.60;99.90
7846;DHT22;3968;51.424;6.788;2023-08-30T06:53:45;18.60;99.90
7846;DHT22;3968;51.424;6.788;2023-08-30T06:56:12;18.70;99.90
7846;DHT22;3968;51.424;6.788;2023-08-30T06:58:38;18.70;99.90
7846;DHT22;3968;51.424;6.788;2023-08-30T07:01:03;18.70;99.90
7846;DHT22;3968;51.424;6.788;2023-08-30T07:03:29;18.80;99.90
7846;DHT22;3968;51.424;6.788;2023-08-30T07:05:54;18.80;99.90
7846;DHT22;3968;51.424;6.788;2023-08-30T07:08:20;18.80;99.90
7846;DHT22;3968;51.424;6.788;2023-08-30T07:10:46;18.90;99.90
7846;DHT22;3968;51.424;6.788;2023-08-30T07:13:12;18.90;99.90
7846;DHT22;3968;51.424;6.788;2023-08-30T07:15:41;18.80;99.90
7846;DHT22;3968;51.424;6.788;2023-08-30T07:18:07;18.80;99.90
7846;DHT22;3968;51.424;6.788;2023-08-30T07:20:34;18.80;99.90
7846;DHT22;3968;51.424;6.788;2023-08-30T07:23:00;18.80;99.90
7846;DHT22;3968;51.424;6.788;2023-08-30T07:25:26;18.80;99.90
7846;DHT22;3968;51.424;6.788;2023-08-30T07:27:51;18.80;99.90
7846;DHT22;3968;51.424;6.788;2023-08-30T07:30:17;18.80;99.90
7846;DHT22;3968;51.424;6.788;2023-08-30T07:32:43;18.80;99.90
7846;DHT22;3968;51.424;6.788;2023-08-30T07:35:09;18.80;99.90
7846;DHT22;3968;51.424;6.788;2023-08-30T07:37:35;18.80;99.90
7846;DHT22;3968;51.424;6.788;2023-08-30T07:40:01;18.90;99.90
7846;DHT22;3968;51.424;6.788;2023-08-30T07:42:29;19.00;99.90
7846;DHT22;3968;51.424;6.788;2023-08-30T07:44:55;19.00;99.90
7846;DHT22;3968;51.424;6.788;2023-08-30T07:47:21;19.00;99.90
7846;DHT22;3968;51.424;6.788;2023-08-30T07:49:46;19.00;99.90
7846;DHT22;3968;51.424;6.788;2023-08-30T07:52:12;19.10;99.90
7846;DHT22;3968;51.424;6.788;2023-08-30T07:54:40;19.20;99.90
7846;DHT22;3968;51.424;6.788;2023-08-30T07:57:06;19.30;99.90
7846;DHT22;3968;51.424;6.788;2023-08-30T07:59:36;19.30;99.90
7846;DHT22;3968;51.424;6.788;2023-08-30T08:02:02;19.30;99.90
7846;DHT22;3968;51.424;6.788;2023-08-30T08:04:29;19.40;99.90
7846;DHT22;3968;51.424;6.788;2023-08-30T08:06:54;19.40;99.90
7846;DHT22;3968;51.424;6.788;2023-08-30T08:09:20;19.50;99.90
7846;DHT22;3968;51.424;6.788;2023-08-30T08:11:50;19.60;99.90
7846;DHT22;3968;51.424;6.788;2023-08-30T08:14:16;19.60;99.90
7846;DHT22;3968;51.424;6.788;2023-08-30T08:16:42;19.60;99.90
7846;DHT22;3968;51.424;6.788;2023-08-30T08:19:08;19.70;99.90
7846;DHT22;3968;51.424;6.788;2023-08-30T08:21:34;19.90;99.90
7846;DHT22;3968;51.424;6.788;2023-08-30T08:24:00;20.00;99.90
7846;DHT22;3968;51.424;6.788;2023-08-30T08:26:26;20.10;99.90
7846;DHT22;3968;51.424;6.788;2023-08-30T08:28:53;20.20;99.90
7846;DHT22;3968;51.424;6.788;2023-08-30T08:31:19;20.20;99.90
7846;DHT22;3968;51.424;6.788;2023-08-30T08:33:44;20.30;99.90
7846;DHT22;3968;51.424;6.788;2023-08-30T08:36:10;20.40;99.90
7846;DHT22;3968;51.424;6.788;2023-08-30T08:38:36;20.50;99.90
7846;DHT22;3968;51.424;6.788;2023-08-30T08:41:04;20.50;99.90
7846;DHT22;3968;51.424;6.788;2023-08-30T08:43:32;20.60;99.90
7846;DHT22;3968;51.424;6.788;2023-08-30T08:46:01;20.60;99.90
7846;DHT22;3968;51.424;6.788;2023-08-30T08:48:28;20.70;99.90
7846;DHT22;3968;51.424;6.788;2023-08-30T08:50:55;20.70;99.90
7846;DHT22;3968;51.424;6.788;2023-08-30T08:53:22;20.70;99.90
7846;DHT22;3968;51.424;6.788;2023-08-30T08:55:48;20.70;99.90
7846;DHT22;3968;51.424;6.788;2023-08-30T08:58:15;20.80;99.90
7846;DHT22;3968;51.424;6.788;2023-08-30T09:00:44;20.70;99.90
7846;DHT22;3968;51.424;6.788;2023-08-30T09:03:10;20.40;99.90
7846;DHT22;3968;51.424;6.788;2023-08-30T09:05:40;20.30;99.90
7846;DHT22;3968;51.424;6.788;2023-08-30T09:08:06;20.20;99.90
7846;DHT22;3968;51.424;6.788;2023-08-30T09:10:32;20.20;99.90
7846;DHT22;3968;51.424;6.788;2023-08-30T09:12:59;20.10;99.90
7846;DHT22;3968;51.424;6.788;2023-08-30T09:15:34;20.10;99.90
7846;DHT22;3968;51.424;6.788;2023-08-30T09:18:00;20.00;99.90
7846;DHT22;3968;51.424;6.788;2023-08-30T09:20:26;20.00;99.90
7846;DHT22;3968;51.424;6.788;2023-08-30T09:22:52;20.00;99.90
7846;DHT22;3968;51.424;6.788;2023-08-30T09:25:27;20.00;99.90
7846;DHT22;3968;51.424;6.788;2023-08-30T09:28:02;19.90;99.90
7846;DHT22;3968;51.424;6.788;2023-08-30T09:30:29;19.90;99.90
7846;DHT22;3968;51.424;6.788;2023-08-30T09:33:01;19.90;99.90
7846;DHT22;3968;51.424;6.788;2023-08-30T09:35:27;19.90;99.90
7846;DHT22;3968;51.424;6.788;2023-08-30T09:37:53;19.80;99.90
7846;DHT22;3968;51.424;6.788;2023-08-30T09:40:19;19.70;99.90
7846;DHT22;3968;51.424;6.788;2023-08-30T09:42:46;19.70;99.90
7846;DHT22;3968;51.424;6.788;2023-08-30T09:45:38;19.80;99.90
7846;DHT22;3968;51.424;6.788;2023-08-30T09:48:05;19.80;99.90
7846;DHT22;3968;51.424;6.788;2023-08-30T09:50:35;19.80;99.90
7846;DHT22;3968;51.424;6.788;2023-08-30T09:53:11;19.70;99.90
7846;DHT22;3968;51.424;6.788;2023-08-30T09:55:40;19.60;99.90
7846;DHT22;3968;51.424;6.788;2023-08-30T09:58:06;19.50;99.90
7846;DHT22;3968;51.424;6.788;2023-08-30T10:00:33;19.50;99.90
7846;DHT22;3968;51.424;6.788;2023-08-30T10:03:02;19.50;99.90
7846;DHT22;3968;51.424;6.788;2023-08-30T10:05:29;19.40;99.90
7846;DHT22;3968;51.424;6.788;2023-08-30T10:07:55;19.40;99.90
7846;DHT22;3968;51.424;6.788;2023-08-30T10:10:23;19.40;99.90
7846;DHT22;3968;51.424;6.788;2023-08-30T10:12:49;19.40;99.90
7846;DHT22;3968;51.424;6.788;2023-08-30T10:15:15;19.40;99.90
7846;DHT22;3968;51.424;6.788;2023-08-30T10:17:44;19.30;99.90
7846;DHT22;3968;51.424;6.788;2023-08-30T10:20:11;19.30;99.90
7846;DHT22;3968;51.424;6.788;2023-08-30T10:22:41;19.30;99.90
7846;DHT22;3968;51.424;6.788;2023-08-30T10:25:12;19.40;99.90
7846;DHT22;3968;51.424;6.788;2023-08-30T10:27:44;19.40;99.90
7846;DHT22;3968;51.424;6.788;2023-08-30T10:30:13;19.50;99.90
7846;DHT22;3968;51.424;6.788;2023-08-30T10:32:42;19.50;99.90
7846;DHT22;3968;51.424;6.788;2023-08-30T10:35:12;19.50;99.90
7846;DHT22;3968;51.424;6.788;2023-08-30T10:37:38;19.50;99.90
7846;DHT22;3968;51.424;6.788;2023-08-30T10:40:04;19.50;99.90
7846;DHT22;3968;51.424;6.788;2023-08-30T10:42:31;19.30;99.90
7846;DHT22;3968;51.424;6.788;2023-08-30T10:47:29;19.30;99.90
7846;DHT22;3968;51.424;6.788;2023-08-30T10:49:56;19.30;99.90
7846;DHT22;3968;51.424;6.788;2023-08-30T10:52:23;19.20;99.90
7846;DHT22;3968;51.424;6.788;2023-08-30T10:54:49;19.20;99.90
7846;DHT22;3968;51.424;6.788;2023-08-30T10:57:24;19.20;99.90
7846;DHT22;3968;51.424;6.788;2023-08-30T11:00:11;19.20;99.90
7846;DHT22;3968;51.424;6.788;2023-08-30T11:02:42;19.10;99.90
7846;DHT22;3968;51.424;6.788;2023-08-30T11:05:08;19.10;99.90
7846;DHT22;3968;51.424;6.788;2023-08-30T11:07:34;19.10;99.90
7846;DHT22;3968;51.424;6.788;2023-08-30T11:10:01;19.20;99.90
7846;DHT22;3968;51.424;6.788;2023-08-30T11:12:26;19.10;99.90
7846;DHT22;3968;51.424;6.788;2023-08-30T11:14:52;18.90;99.90
7846;DHT22;3968;51.424;6.788;2023-08-30T11:17:19;18.60;99.90
7846;DHT22;3968;51.424;6.788;2023-08-30T11:19:45;18.40;99.90
7846;DHT22;3968;51.424;6.788;2023-08-30T11:22:12;18.20;99.90
7846;DHT22;3968;51.424;6.788;2023-08-30T11:24:39;18.10;99.90
7846;DHT22;3968;51.424;6.788;2023-08-30T11:27:05;18.10;99.90
7846;DHT22;3968;51.424;6.788;2023-08-30T11:29:30;18.00;99.90
7846;DHT22;3968;51.424;6.788;2023-08-30T11:31:56;17.90;99.90
7846;DHT22;3968;51.424;6.788;2023-08-30T11:34:21;17.80;99.90
7846;DHT22;3968;51.424;6.788;2023-08-30T11:36:48;17.70;99.90
7846;DHT22;3968;51.424;6.788;2023-08-30T11:39:16;17.60;99.90
7846;DHT22;3968;51.424;6.788;2023-08-30T11:41:42;17.60;99.90
7846;DHT22;3968;51.424;6.788;2023-08-30T11:44:08;17.50;99.90
7846;DHT22;3968;51.424;6.788;2023-08-30T11:46:33;17.50;99.90
7846;DHT22;3968;51.424;6.788;2023-08-30T11:48:59;17.40;99.90
7846;DHT22;3968;51.424;6.788;2023-08-30T11:51:25;17.40;99.90
7846;DHT22;3968;51.424;6.788;2023-08-30T11:53:52;17.40;99.90
7846;DHT22;3968;51.424;6.788;2023-08-30T11:56:18;17.40;99.90
7846;DHT22;3968;51.424;6.788;2023-08-30T11:58:44;17.40;99.90
7846;DHT22;3968;51.424;6.788;2023-08-30T12:01:11;17.50;99.90
7846;DHT22;3968;51.424;6.788;2023-08-30T12:03:37;17.50;99.90
7846;DHT22;3968;51.424;6.788;2023-08-30T12:06:08;17.50;99.90
7846;DHT22;3968;51.424;6.788;2023-08-30T12:08:34;17.60;99.90
7846;DHT22;3968;51.424;6.788;2023-08-30T12:11:00;17.60;99.90
7846;DHT22;3968;51.424;6.788;2023-08-30T12:13:27;17.60;99.90
7846;DHT22;3968;51.424;6.788;2023-08-30T12:15:57;17.70;99.90
7846;DHT22;3968;51.424;6.788;2023-08-30T12:18:28;17.70;99.90
7846;DHT22;3968;51.424;6.788;2023-08-30T12:23:26;17.60;99.90
7846;DHT22;3968;51.424;6.788;2023-08-30T12:26:04;17.60;99.90
7846;DHT22;3968;51.424;6.788;2023-08-30T12:28:31;17.50;99.90
7846;DHT22;3968;51.424;6.788;2023-08-30T12:30:58;17.40;99.90
7846;DHT22;3968;51.424;6.788;2023-08-30T12:33:24;17.40;99.90
7846;DHT22;3968;51.424;6.788;2023-08-30T12:35:57;17.40;99.90
7846;DHT22;3968;51.424;6.788;2023-08-30T12:38:23;17.30;99.90
7846;DHT22;3968;51.424;6.788;2023-08-30T12:40:51;17.30;99.90
7846;DHT22;3968;51.424;6.788;2023-08-30T12:43:17;17.30;99.90
7846;DHT22;3968;51.424;6.788;2023-08-30T12:45:44;17.30;99.90
7846;DHT22;3968;51.424;6.788;2023-08-30T12:48:10;17.20;99.90
7846;DHT22;3968;51.424;6.788;2023-08-30T12:50:37;17.30;99.90
7846;DHT22;3968;51.424;6.788;2023-08-30T12:53:04;17.30;99.90
7846;DHT22;3968;51.424;6.788;2023-08-30T12:55:30;17.20;99.90
7846;DHT22;3968;51.424;6.788;2023-08-30T12:57:55;17.10;99.90
7846;DHT22;3968;51.424;6.788;2023-08-30T13:00:21;17.10;99.90
7846;DHT22;3968;51.424;6.788;2023-08-30T13:02:47;17.10;99.90
7846;DHT22;3968;51.424;6.788;2023-08-30T13:05:13;17.10;99.90
7846;DHT22;3968;51.424;6.788;2023-08-30T13:07:38;17.00;99.90
7846;DHT22;3968;51.424;6.788;2023-08-30T13:10:05;17.00;99.90
7846;DHT22;3968;51.424;6.788;2023-08-30T13:12:31;17.00;99.90
7846;DHT22;3968;51.424;6.788;2023-08-30T13:14:57;17.00;99.90
7846;DHT22;3968;51.424;6.788;2023-08-30T13:17:22;16.90;99.90
7846;DHT22;3968;51.424;6.788;2023-08-30T13:19:48;17.00;99.90
7846;DHT22;3968;51.424;6.788;2023-08-30T13:22:14;17.10;99.90
7846;DHT22;3968;51.424;6.788;2023-08-30T13:24:40;17.10;99.90
7846;DHT22;3968;51.424;6.788;2023-08-30T13:27:06;17.20;99.90
7846;DHT22;3968;51.424;6.788;2023-08-30T13:29:32;17.30;99.90
7846;DHT22;3968;51.424;6.788;2023-08-30T13:31:57;17.30;99.90
7846;DHT22;3968;51.424;6.788;2023-08-30T13:34:23;17.30;99.90
7846;DHT22;3968;51.424;6.788;2023-08-30T13:36:48;17.40;99.90
7846;DHT22;3968;51.424;6.788;2023-08-30T13:39:14;17.40;99.90
7846;DHT22;3968;51.424;6.788;2023-08-30T13:41:40;17.50;99.90
7846;DHT22;3968;51.424;6.788;2023-08-30T13:44:06;17.50;99.90
7846;DHT22;3968;51.424;6.788;2023-08-30T13:46:33;17.50;99.90
7846;DHT22;3968;51.424;6.788;2023-08-30T13:48:59;17.50;99.90
7846;DHT22;3968;51.424;6.788;2023-08-30T13:51:26;17.40;99.90
7846;DHT22;3968;51.424;6.788;2023-08-30T13:53:52;17.50;99.90
7846;DHT22;3968;51.424;6.788;2023-08-30T13:56:19;17.50;99.90
7846;DHT22;3968;51.424;6.788;2023-08-30T13:58:45;17.40;99.90
7846;DHT22;3968;51.424;6.788;2023-08-30T14:01:11;17.30;99.90
7846;DHT22;3968;51.424;6.788;2023-08-30T14:03:37;17.30;99.90
7846;DHT22;3968;51.424;6.788;2023-08-30T14:06:03;17.20;99.90
7846;DHT22;3968;51.424;6.788;2023-08-30T14:08:29;17.10;99.90
7846;DHT22;3968;51.424;6.788;2023-08-30T14:10:55;17.00;99.90
7846;DHT22;3968;51.424;6.788;2023-08-30T14:13:21;17.00;99.90
7846;DHT22;3968;51.424;6.788;2023-08-30T14:15:47;16.90;99.90
7846;DHT22;3968;51.424;6.788;2023-08-30T14:18:13;16.80;99.90
7846;DHT22;3968;51.424;6.788;2023-08-30T14:20:39;16.80;99.90
7846;DHT22;3968;51.424;6.788;2023-08-30T14:23:04;16.70;99.90
7846;DHT22;3968;51.424;6.788;2023-08-30T14:25:30;16.70;99.90
7846;DHT22;3968;51.424;6.788;2023-08-30T14:27:55;16.70;99.90
7846;DHT22;3968;51.424;6.788;2023-08-30T14:30:21;16.70;99.90
7846;DHT22;3968;51.424;6.788;2023-08-30T14:32:47;16.80;99.90
7846;DHT22;3968;51.424;6.788;2023-08-30T14:35:12;16.90;99.90
7846;DHT22;3968;51.424;6.788;2023-08-30T14:37:38;16.80;99.90
7846;DHT22;3968;51.424;6.788;2023-08-30T14:40:05;16.90;99.90
7846;DHT22;3968;51.424;6.788;2023-08-30T14:42:32;16.80;99.90
7846;DHT22;3968;51.424;6.788;2023-08-30T14:44:57;16.70;99.90
7846;DHT22;3968;51.424;6.788;2023-08-30T14:47:23;16.70;99.90
7846;DHT22;3968;51.424;6.788;2023-08-30T14:49:49;16.60;99.90
7846;DHT22;3968;51.424;6.788;2023-08-30T14:52:15;16.70;99.90
7846;DHT22;3968;51.424;6.788;2023-08-30T14:54:42;16.60;99.90
7846;DHT22;3968;51.424;6.788;2023-08-30T14:57:08;16.60;99.90
7846;DHT22;3968;51.424;6.788;2023-08-30T14:59:34;16.50;99.90
7846;DHT22;3968;51.424;6.788;2023-08-30T15:02:00;16.50;99.90
7846;DHT22;3968;51.424;6.788;2023-08-30T15:04:26;16.60;99.90
7846;DHT22;3968;51.424;6.788;2023-08-30T15:06:51;16.50;99.90
7846;DHT22;3968;51.424;6.788;2023-08-30T15:09:17;16.50;99.90
7846;DHT22;3968;51.424;6.788;2023-08-30T15:11:44;16.50;99.90
7846;DHT22;3968;51.424;6.788;2023-08-30T15:14:10;16.60;99.90
7846;DHT22;3968;51.424;6.788;2023-08-30T15:16:36;16.60;99.90
7846;DHT22;3968;51.424;6.788;2023-08-30T15:19:02;16.60;99.90
7846;DHT22;3968;51.424;6.788;2023-08-30T15:21:28;16.60;99.90
7846;DHT22;3968;51.424;6.788;2023-08-30T15:23:54;16.60;99.90
7846;DHT22;3968;51.424;6.788;2023-08-30T15:26:19;16.70;99.90
7846;DHT22;3968;51.424;6.788;2023-08-30T15:28:49;16.70;99.90
7846;DHT22;3968;51.424;6.788;2023-08-30T15:31:16;16.80;99.90
7846;DHT22;3968;51.424;6.788;2023-08-30T15:33:44;17.00;99.90
7846;DHT22;3968;51.424;6.788;2023-08-30T15:36:10;17.10;99.90
7846;DHT22;3968;51.424;6.788;2023-08-30T15:38:36;17.30;99.90
7846;DHT22;3968;51.424;6.788;2023-08-30T15:41:06;17.40;99.90
7846;DHT22;3968;51.424;6.788;2023-08-30T15:43:33;17.40;99.90
7846;DHT22;3968;51.424;6.788;2023-08-30T15:46:05;17.50;99.90
7846;DHT22;3968;51.424;6.788;2023-08-30T15:48:31;17.60;99.90
7846;DHT22;3968;51.424;6.788;2023-08-30T15:50:57;17.60;99.90
7846;DHT22;3968;51.424;6.788;2023-08-30T15:53:22;17.70;99.90
7846;DHT22;3968;51.424;6.788;2023-08-30T15:55:48;17.70;99.90
7846;DHT22;3968;51.424;6.788;2023-08-30T15:58:13;17.80;99.90
7846;DHT22;3968;51.424;6.788;2023-08-30T16:00:39;17.90;99.90
7846;DHT22;3968;51.424;6.788;2023-08-30T16:03:06;18.00;99.90
7846;DHT22;3968;51.424;6.788;2023-08-30T16:05:34;18.00;99.90
7846;DHT22;3968;51.424;6.788;2023-08-30T16:07:59;18.00;99.90
7846;DHT22;3968;51.424;6.788;2023-08-30T16:10:25;17.90;99.90